Time;durP1;ratioP1;P1;durP2;ratioP2;P2;SDS_P1;SDS_P2;PMS_P1;PMS_P2;Temp;Humidity;BMP_temperature;BMP_pressure;BME280_temperature;BME280_humidity;BME280_pressure;Samples;Min_cycle;Max_cycle;Signal;HPM_P1;HPM_P2
2020/12/07 00:00:49;;;;;;;50.00;28.70;;;5.70;89.00;;;;;;5030992;28;20742;-75
2020/12/07 00:03:14;;;;;;;51.20;26.57;;;5.60;90.60;;;;;;5041658;28;20890;-74
2020/12/07 00:05:40;;;;;;;47.13;26.60;;;5.60;91.00;;;;;;5050454;28;20759;-74
2020/12/07 00:08:05;;;;;;;44.13;25.65;;;5.60;90.30;;;;;;5041790;28;20381;-74
2020/12/07 00:10:31;;;;;;;40.40;24.00;;;5.60;90.20;;;;;;5050667;28;20389;-75
2020/12/07 00:12:57;;;;;;;43.75;24.25;;;5.60;90.00;;;;;;5047075;28;20436;-75
2020/12/07 00:15:22;;;;;;;45.55;25.33;;;5.60;89.50;;;;;;5052036;28;20450;-74
2020/12/07 00:17:48;;;;;;;44.17;25.90;;;5.50;90.30;;;;;;5050886;28;20388;-75
2020/12/07 00:20:14;;;;;;;44.30;24.90;;;5.50;90.80;;;;;;5051103;28;20893;-75
2020/12/07 00:22:39;;;;;;;42.13;25.30;;;5.60;90.30;;;;;;5050565;28;20838;-74
2020/12/07 00:25:06;;;;;;;38.85;24.10;;;5.50;89.60;;;;;;5037455;28;20435;-76
2020/12/07 00:27:33;;;;;;;42.20;25.33;;;5.50;90.50;;;;;;5030181;28;20387;-75
2020/12/07 00:30:01;;;;;;;42.38;25.45;;;5.60;89.70;;;;;;5030334;28;20453;-74
2020/12/07 00:32:27;;;;;;;43.00;26.00;;;5.50;89.00;;;;;;5050492;28;20863;-74
2020/12/07 00:34:54;;;;;;;44.22;25.38;;;5.50;90.60;;;;;;5050464;28;20423;-76
2020/12/07 00:37:21;;;;;;;40.38;24.60;;;5.50;90.90;;;;;;5034412;28;20894;-74
2020/12/07 00:39:47;;;;;;;39.27;23.80;;;5.50;88.80;;;;;;5032755;28;20483;-75
2020/12/07 00:42:12;;;;;;;39.88;24.13;;;5.60;88.40;;;;;;5033229;28;20434;-74
2020/12/07 00:44:39;;;;;;;40.08;24.40;;;5.50;87.20;;;;;;5031837;28;20660;-75
2020/12/07 00:47:06;;;;;;;42.60;25.00;;;5.40;88.20;;;;;;5030723;28;20868;-74
2020/12/07 00:49:33;;;;;;;38.60;24.73;;;5.40;87.90;;;;;;5046173;28;20758;-74
2020/12/07 00:51:59;;;;;;;42.63;24.33;;;5.40;86.20;;;;;;5050644;28;20386;-74
2020/12/07 00:54:25;;;;;;;39.78;25.15;;;5.40;87.00;;;;;;5050150;28;20385;-74
2020/12/07 00:56:58;;;;;;;40.47;23.90;;;5.40;87.80;;;;;;5048864;28;20393;-75
2020/12/07 00:59:25;;;;;;;40.72;25.35;;;5.40;88.20;;;;;;5052273;28;20400;-74
2020/12/07 01:01:52;;;;;;;42.13;24.50;;;5.30;88.50;;;;;;5034475;28;21011;-77
2020/12/07 01:04:18;;;;;;;45.08;26.05;;;5.40;86.90;;;;;;5031571;28;20414;-74
2020/12/07 01:06:45;;;;;;;43.77;25.47;;;5.40;85.10;;;;;;5035319;28;20389;-77
2020/12/07 01:09:13;;;;;;;37.88;24.45;;;5.40;85.30;;;;;;5052227;28;20867;-75
2020/12/07 01:11:42;;;;;;;42.28;25.50;;;5.40;85.90;;;;;;5036729;28;20459;-75
2020/12/07 01:14:11;;;;;;;40.53;24.88;;;5.40;85.70;;;;;;5048478;28;20394;-75
2020/12/07 01:16:37;;;;;;;41.47;25.90;;;5.40;85.60;;;;;;5051095;28;20940;-74
2020/12/07 01:19:06;;;;;;;43.78;26.13;;;5.40;84.50;;;;;;5045112;28;20419;-76
2020/12/07 01:21:33;;;;;;;39.87;24.10;;;5.30;86.10;;;;;;5029904;28;20391;-77
2020/12/07 01:24:00;;;;;;;41.53;25.00;;;5.30;85.20;;;;;;5045253;28;20480;-75
2020/12/07 01:26:25;;;;;;;43.05;25.05;;;5.30;85.30;;;;;;5033122;28;20393;-74
2020/12/07 01:28:52;;;;;;;44.97;25.38;;;5.30;85.20;;;;;;5029825;28;20387;-74
2020/12/07 01:31:17;;;;;;;42.40;25.35;;;5.30;86.10;;;;;;5029449;28;20383;-75
2020/12/07 01:33:44;;;;;;;43.10;26.10;;;5.30;86.20;;;;;;5042716;28;20483;-75
2020/12/07 01:36:10;;;;;;;42.87;25.90;;;5.30;85.20;;;;;;5049177;28;20398;-74
2020/12/07 01:38:35;;;;;;;41.33;24.90;;;5.30;85.80;;;;;;5048809;28;20797;-74
2020/12/07 01:41:01;;;;;;;42.83;25.40;;;5.30;84.90;;;;;;5030264;28;20409;-75
2020/12/07 01:43:26;;;;;;;39.63;24.35;;;5.20;85.70;;;;;;5040864;28;20811;-75
2020/12/07 01:45:52;;;;;;;41.03;26.00;;;5.20;85.50;;;;;;5049681;28;20843;-75
2020/12/07 01:48:18;;;;;;;44.58;26.35;;;5.20;85.20;;;;;;5037736;28;20748;-75
2020/12/07 01:50:43;;;;;;;40.40;25.27;;;5.20;86.20;;;;;;5029959;28;20380;-74
2020/12/07 01:53:10;;;;;;;46.20;26.43;;;5.20;86.20;;;;;;5035051;28;20401;-75
2020/12/07 01:55:37;;;;;;;39.28;23.75;;;5.20;85.10;;;;;;5029572;28;20426;-75
2020/12/07 01:58:03;;;;;;;40.90;25.85;;;5.20;84.10;;;;;;5036890;28;20401;-74
2020/12/07 02:00:28;;;;;;;46.30;25.83;;;5.20;85.30;;;;;;5048031;28;20393;-74
2020/12/07 02:02:54;;;;;;;38.78;24.20;;;5.20;85.10;;;;;;5042555;28;20468;-74
2020/12/07 02:05:20;;;;;;;40.28;24.48;;;5.20;84.10;;;;;;5028964;28;20406;-74
2020/12/07 02:07:46;;;;;;;38.90;24.10;;;5.20;84.10;;;;;;5035939;28;20401;-75
2020/12/07 02:10:11;;;;;;;41.92;25.38;;;5.20;84.70;;;;;;5048485;28;20392;-74
2020/12/07 02:12:37;;;;;;;43.42;26.02;;;5.20;85.00;;;;;;5049799;28;20483;-75
2020/12/07 02:15:03;;;;;;;42.38;25.10;;;5.10;84.70;;;;;;5052309;28;20389;-74
2020/12/07 02:17:28;;;;;;;43.08;25.92;;;5.10;85.00;;;;;;5053324;28;20397;-75
2020/12/07 02:19:54;;;;;;;44.03;26.50;;;5.10;86.50;;;;;;5052520;28;20785;-75
2020/12/07 02:22:19;;;;;;;43.93;26.17;;;5.20;86.40;;;;;;5046761;28;20428;-74
2020/12/07 02:24:45;;;;;;;44.57;26.73;;;5.10;86.50;;;;;;5051939;28;20459;-76
2020/12/07 02:27:10;;;;;;;44.17;26.70;;;5.10;86.10;;;;;;5052498;28;20690;-75
2020/12/07 02:29:36;;;;;;;46.65;27.20;;;5.10;86.30;;;;;;5035221;28;20401;-74
2020/12/07 02:32:13;;;;;;;43.05;27.20;;;5.10;86.30;;;;;;5032650;28;20386;-75
2020/12/07 02:34:40;;;;;;;44.77;26.77;;;5.10;86.90;;;;;;5044467;28;20385;-72
2020/12/07 02:37:06;;;;;;;43.97;26.70;;;5.10;87.40;;;;;;5037804;28;20795;-74
2020/12/07 02:39:32;;;;;;;43.78;27.30;;;5.20;86.10;;;;;;5033212;28;20482;-73
2020/12/07 02:41:57;;;;;;;45.85;28.17;;;5.20;85.60;;;;;;5032385;28;20463;-73
2020/12/07 02:44:23;;;;;;;45.33;26.77;;;5.20;86.30;;;;;;5052609;28;20464;-76
2020/12/07 02:46:48;;;;;;;45.43;26.40;;;5.20;86.10;;;;;;5053552;28;20454;-76
2020/12/07 02:49:14;;;;;;;44.00;26.60;;;5.20;85.30;;;;;;5055026;28;20378;-74
2020/12/07 02:51:39;;;;;;;42.23;26.23;;;5.20;85.40;;;;;;5034583;28;20436;-74
2020/12/07 02:54:05;;;;;;;44.30;26.58;;;5.20;85.10;;;;;;5049272;28;20801;-73
2020/12/07 02:56:31;;;;;;;44.20;26.58;;;5.20;85.30;;;;;;5053841;28;20385;-76
2020/12/07 02:58:57;;;;;;;43.47;26.60;;;5.20;86.50;;;;;;5049569;28;20748;-76
2020/12/07 03:01:22;;;;;;;40.50;25.07;;;5.20;86.00;;;;;;5034009;28;20379;-74
2020/12/07 03:03:48;;;;;;;39.63;25.23;;;5.20;86.00;;;;;;5033557;28;20752;-75
2020/12/07 03:06:13;;;;;;;44.80;26.03;;;5.20;85.50;;;;;;5032046;28;20925;-73
2020/12/07 03:08:39;;;;;;;39.43;24.83;;;5.20;85.80;;;;;;5051163;28;20416;-74
2020/12/07 03:11:05;;;;;;;41.78;26.10;;;5.20;84.90;;;;;;5051675;28;20454;-75
2020/12/07 03:13:31;;;;;;;45.33;26.37;;;5.20;86.30;;;;;;5050759;28;20420;-75
2020/12/07 03:15:56;;;;;;;41.90;26.30;;;5.20;85.90;;;;;;5051666;28;20721;-75
2020/12/07 03:18:22;;;;;;;43.00;26.83;;;5.20;84.40;;;;;;5048102;28;20414;-75
2020/12/07 03:20:48;;;;;;;46.40;27.70;;;5.20;85.30;;;;;;5032405;28;20383;-75
2020/12/07 03:23:13;;;;;;;50.47;30.13;;;5.20;84.70;;;;;;5044806;28;20485;-74
2020/12/07 03:25:39;;;;;;;53.10;30.60;;;5.20;84.80;;;;;;5051137;28;20459;-74
2020/12/07 03:28:04;;;;;;;49.70;28.70;;;5.20;84.50;;;;;;5050081;28;20739;-75
2020/12/07 03:30:30;;;;;;;50.88;29.50;;;5.20;84.90;;;;;;5051295;28;20579;-75
2020/12/07 03:32:55;;;;;;;51.40;31.02;;;5.20;85.20;;;;;;5040359;28;20441;-75
2020/12/07 03:35:21;;;;;;;55.38;31.60;;;5.20;85.30;;;;;;5038930;28;20402;-74
2020/12/07 03:37:46;;;;;;;51.83;31.33;;;5.20;85.50;;;;;;5031104;28;20448;-75
2020/12/07 03:40:12;;;;;;;57.23;33.57;;;5.20;83.10;;;;;;5031081;28;20390;-74
2020/12/07 03:42:37;;;;;;;52.40;32.10;;;5.10;84.10;;;;;;5037663;28;20467;-75
2020/12/07 03:45:03;;;;;;;57.30;33.73;;;5.10;83.90;;;;;;5050829;28;20478;-75
2020/12/07 03:47:29;;;;;;;59.50;34.08;;;5.10;83.30;;;;;;5041846;28;20395;-75
2020/12/07 03:49:54;;;;;;;61.63;34.50;;;5.10;83.80;;;;;;5030623;28;20466;-74
2020/12/07 03:52:20;;;;;;;58.03;33.27;;;5.10;84.10;;;;;;5030380;28;20464;-74
2020/12/07 03:54:45;;;;;;;58.97;34.53;;;5.10;85.10;;;;;;5030575;28;20864;-74
2020/12/07 03:57:11;;;;;;;58.23;34.00;;;5.10;85.00;;;;;;5030916;28;20391;-74
2020/12/07 03:59:36;;;;;;;58.17;35.40;;;5.10;84.70;;;;;;5050640;28;20468;-74
2020/12/07 04:02:02;;;;;;;58.77;35.33;;;5.10;85.30;;;;;;5041738;28;20403;-74
2020/12/07 04:04:36;;;;;;;62.75;36.05;;;5.10;84.00;;;;;;5053250;28;20396;-74
2020/12/07 04:07:02;;;;;;;58.40;34.85;;;5.10;83.30;;;;;;5046485;28;20389;-74
2020/12/07 04:09:27;;;;;;;62.90;36.13;;;5.10;83.10;;;;;;5053084;28;20394;-74
2020/12/07 04:11:53;;;;;;;68.07;37.60;;;5.10;82.40;;;;;;5053985;28;20960;-75
2020/12/07 04:14:18;;;;;;;66.50;37.30;;;5.10;83.00;;;;;;5053377;28;20388;-75
2020/12/07 04:16:44;;;;;;;70.22;37.78;;;5.10;82.10;;;;;;5047100;28;20393;-74
2020/12/07 04:19:09;;;;;;;68.80;39.33;;;5.10;83.50;;;;;;5050042;28;20740;-74
2020/12/07 04:21:35;;;;;;;72.60;39.60;;;5.00;84.80;;;;;;5050307;28;20377;-73
2020/12/07 04:24:00;;;;;;;73.68;39.22;;;5.10;85.80;;;;;;5049903;28;20879;-73
2020/12/07 04:26:26;;;;;;;70.47;38.65;;;5.10;83.70;;;;;;5041268;28;20391;-72
2020/12/07 04:28:51;;;;;;;71.95;38.90;;;5.20;83.70;;;;;;5031585;28;20880;-73
2020/12/07 04:31:17;;;;;;;74.90;37.77;;;5.20;82.60;;;;;;5030445;28;20452;-73
2020/12/07 04:33:43;;;;;;;68.87;38.03;;;5.30;81.50;;;;;;5034794;28;20460;-72
2020/12/07 04:36:08;;;;;;;66.67;37.97;;;5.30;82.20;;;;;;5049290;28;20382;-73
2020/12/07 04:38:34;;;;;;;75.40;38.93;;;5.20;82.90;;;;;;5043170;28;20500;-72
2020/12/07 04:41:02;;;;;;;60.73;36.40;;;5.20;83.90;;;;;;5030208;28;20387;-72
2020/12/07 04:43:27;;;;;;;71.40;39.38;;;5.20;83.50;;;;;;5041784;28;20476;-72
2020/12/07 04:45:53;;;;;;;70.93;38.43;;;5.20;84.30;;;;;;5031535;28;20507;-73
2020/12/07 04:48:20;;;;;;;68.45;38.20;;;5.10;85.90;;;;;;5029980;28;20757;-73
2020/12/07 04:50:46;;;;;;;67.80;38.80;;;5.20;85.90;;;;;;5029862;28;20718;-72
2020/12/07 04:53:13;;;;;;;67.13;37.03;;;5.20;84.40;;;;;;5039092;28;20523;-73
2020/12/07 04:55:39;;;;;;;66.47;36.22;;;5.20;85.10;;;;;;5049761;28;20386;-73
2020/12/07 04:58:06;;;;;;;62.95;36.00;;;5.30;84.90;;;;;;5046864;28;20501;-73
2020/12/07 05:00:32;;;;;;;64.38;34.92;;;5.30;83.50;;;;;;5030337;28;20410;-72
2020/12/07 05:02:59;;;;;;;62.30;35.50;;;5.30;82.50;;;;;;5049609;28;20403;-72
2020/12/07 05:05:24;;;;;;;60.90;35.30;;;5.30;81.60;;;;;;5049330;28;20605;-72
2020/12/07 05:07:52;;;;;;;58.30;33.73;;;5.30;82.80;;;;;;5040866;28;20400;-72
2020/12/07 05:10:43;;;;;;;62.38;36.92;;;5.30;82.00;;;;;;5049088;28;20417;-72
2020/12/07 05:15:40;;;;;;;60.88;35.65;;;5.30;83.30;;;;;;5029597;28;20524;-72
2020/12/07 05:18:06;;;;;;;64.00;34.90;;;5.20;83.20;;;;;;5029492;28;20419;-73
2020/12/07 05:20:32;;;;;;;59.60;34.60;;;5.20;84.20;;;;;;5029674;28;20387;-73
2020/12/07 05:22:59;;;;;;;58.22;33.33;;;5.40;82.30;;;;;;5049163;28;20381;-73
2020/12/07 05:25:25;;;;;;;59.47;33.67;;;5.40;80.90;;;;;;5047723;28;20401;-72
2020/12/07 05:27:53;;;;;;;59.92;34.33;;;5.30;80.60;;;;;;5033043;28;20391;-73
2020/12/07 05:30:23;;;;;;;62.00;34.25;;;5.40;81.70;;;;;;5029111;28;20784;-72
2020/12/07 05:32:48;;;;;;;58.47;33.40;;;5.30;80.90;;;;;;5030395;28;20391;-73
2020/12/07 05:35:14;;;;;;;59.47;33.67;;;5.30;80.80;;;;;;5048671;28;20862;-72
2020/12/07 05:37:40;;;;;;;56.97;31.57;;;5.30;80.30;;;;;;5049204;28;20381;-73
2020/12/07 05:40:14;;;;;;;52.13;30.77;;;5.30;78.40;;;;;;5048991;28;20739;-72
2020/12/07 05:42:41;;;;;;;53.65;31.45;;;5.20;79.90;;;;;;5031582;28;20776;-71
2020/12/07 05:45:08;;;;;;;55.13;31.90;;;5.20;81.80;;;;;;5035183;28;20409;-73
2020/12/07 05:47:37;;;;;;;52.53;31.90;;;5.20;82.20;;;;;;5050211;28;20405;-72
2020/12/07 05:50:06;;;;;;;56.72;31.98;;;5.20;81.40;;;;;;5053138;28;20766;-72
2020/12/07 05:52:49;;;;;;;55.17;31.97;;;5.10;82.80;;;;;;5052929;28;20377;-73
2020/12/07 05:55:19;;;;;;;53.17;31.33;;;5.20;81.50;;;;;;5049388;28;20482;-73
2020/12/07 05:57:46;;;;;;;55.35;32.35;;;5.20;80.90;;;;;;5047689;28;20393;-72
2020/12/07 06:00:18;;;;;;;53.65;30.92;;;5.20;81.80;;;;;;5053045;28;20478;-74
2020/12/07 06:02:47;;;;;;;56.92;31.50;;;5.20;80.90;;;;;;5034767;28;20811;-73
2020/12/07 06:05:15;;;;;;;56.42;31.40;;;5.20;80.30;;;;;;5032882;28;20411;-73
2020/12/07 06:07:42;;;;;;;58.97;33.35;;;5.20;80.60;;;;;;5043812;28;20384;-72
2020/12/07 06:10:10;;;;;;;59.72;33.13;;;5.20;81.80;;;;;;5041458;28;20402;-73
2020/12/07 06:12:40;;;;;;;59.83;32.42;;;5.20;82.30;;;;;;5032413;28;20401;-73
2020/12/07 06:15:06;;;;;;;56.33;32.20;;;5.20;81.60;;;;;;5032805;28;20440;-71
2020/12/07 06:17:32;;;;;;;59.43;33.93;;;5.20;82.70;;;;;;5032542;28;20394;-72
2020/12/07 06:19:58;;;;;;;57.60;32.45;;;5.20;82.70;;;;;;5032676;28;20399;-72
2020/12/07 06:22:23;;;;;;;62.30;34.37;;;5.20;79.80;;;;;;5031786;28;20410;-72
2020/12/07 06:24:53;;;;;;;66.65;35.13;;;5.20;80.30;;;;;;5044984;28;20902;-72
2020/12/07 06:27:19;;;;;;;63.75;35.15;;;5.20;81.20;;;;;;5051955;28;20407;-72
2020/12/07 06:29:58;;;;;;;62.83;33.63;;;5.20;80.40;;;;;;5051870;28;20878;-71
2020/12/07 06:32:43;;;;;;;62.33;35.72;;;5.20;79.50;;;;;;5046620;28;20395;-73
2020/12/07 06:35:10;;;;;;;61.13;33.40;;;5.20;80.00;;;;;;5048340;28;20386;-73
2020/12/07 06:37:40;;;;;;;64.97;34.08;;;5.30;77.50;;;;;;5047736;28;20781;-73
2020/12/07 06:40:06;;;;;;;65.28;33.83;;;5.20;79.20;;;;;;5032530;28;20879;-71
2020/12/07 06:42:39;;;;;;;64.20;36.10;;;5.20;80.10;;;;;;5034509;28;20394;-72
2020/12/07 06:45:08;;;;;;;67.38;36.30;;;5.30;79.10;;;;;;5043166;28;20413;-74
2020/12/07 06:47:33;;;;;;;68.25;37.72;;;5.20;80.60;;;;;;5053961;28;20926;-72
2020/12/07 06:50:12;;;;;;;70.57;36.87;;;5.20;81.80;;;;;;5053796;28;20413;-73
2020/12/07 06:52:41;;;;;;;71.47;38.22;;;5.20;78.80;;;;;;5044211;28;20403;-73
2020/12/07 06:55:12;;;;;;;73.22;38.92;;;5.20;79.60;;;;;;5034357;28;20452;-74
2020/12/07 06:57:47;;;;;;;68.15;37.10;;;5.10;80.20;;;;;;5050235;28;20468;-74
2020/12/07 07:00:18;;;;;;;71.80;39.15;;;5.10;80.70;;;;;;5041110;28;20495;-72
2020/12/07 07:02:47;;;;;;;69.53;38.30;;;5.10;80.20;;;;;;5032323;28;20399;-72
2020/12/07 07:05:20;;;;;;;72.60;38.92;;;5.10;79.40;;;;;;5031089;28;20403;-72
2020/12/07 07:07:47;;;;;;;67.75;38.80;;;5.10;79.90;;;;;;5040472;28;20837;-72
2020/12/07 07:10:16;;;;;;;75.65;38.63;;;5.10;80.00;;;;;;5031354;28;20398;-73
2020/12/07 07:12:43;;;;;;;72.35;38.15;;;5.10;78.70;;;;;;5033869;28;20443;-73
2020/12/07 07:15:10;;;;;;;74.88;39.50;;;5.10;76.70;;;;;;5049438;28;20386;-72
2020/12/07 07:17:41;;;;;;;68.72;36.92;;;5.00;79.30;;;;;;5037179;28;20896;-73
2020/12/07 07:20:09;;;;;;;69.00;38.08;;;5.10;78.30;;;;;;5031208;28;20776;-72
2020/12/07 07:22:37;;;;;;;67.45;35.75;;;5.00;78.90;;;;;;5031325;28;20391;-73
2020/12/07 07:30:30;;;;;;;74.00;38.75;;;5.10;80.60;;;;;;5035258;28;20943;-75
2020/12/07 07:32:57;;;;;;;67.65;38.28;;;5.10;80.40;;;;;;5037205;28;20795;-74
2020/12/07 07:35:31;;;;;;;71.07;38.58;;;5.00;81.00;;;;;;5048862;28;20397;-72
2020/12/07 07:37:57;;;;;;;67.53;37.42;;;5.00;80.20;;;;;;5048324;28;20423;-73
2020/12/07 07:40:26;;;;;;;64.38;35.95;;;5.20;78.70;;;;;;5039503;28;20417;-73
2020/12/07 07:42:56;;;;;;;65.65;36.72;;;5.20;76.30;;;;;;5036387;28;20412;-72
2020/12/07 07:45:24;;;;;;;68.43;35.90;;;5.20;76.60;;;;;;5038594;28;20472;-74
2020/12/07 07:47:56;;;;;;;68.60;36.10;;;5.10;77.60;;;;;;5031445;28;20482;-76
2020/12/07 08:16:59;;;;;;;60.50;34.83;;;5.20;77.60;;;;;;5040645;28;20511;-76
2020/12/07 08:19:29;;;;;;;62.67;35.20;;;5.20;78.10;;;;;;5045325;28;20493;-75
2020/12/07 08:21:54;;;;;;;61.45;33.53;;;5.20;77.90;;;;;;5032613;28;20402;-76
2020/12/07 08:24:20;;;;;;;52.37;31.07;;;5.30;76.10;;;;;;5037672;28;20409;-76
2020/12/07 08:26:46;;;;;;;57.63;31.87;;;5.40;73.70;;;;;;5040220;28;20399;-75
2020/12/07 08:29:12;;;;;;;56.97;31.93;;;5.30;74.10;;;;;;5031945;28;20887;-74
2020/12/07 08:31:39;;;;;;;57.63;31.83;;;5.30;75.20;;;;;;5044326;28;20439;-76
2020/12/07 08:34:14;;;;;;;56.15;31.77;;;5.30;75.00;;;;;;5048207;28;20397;-75
2020/12/07 08:36:45;;;;;;;55.00;32.60;;;5.30;76.40;;;;;;5040050;28;20751;-77
2020/12/07 08:39:10;;;;;;;64.43;36.23;;;5.40;73.00;;;;;;5040023;28;20971;-75
2020/12/07 08:41:37;;;;;;;69.65;38.25;;;5.40;73.50;;;;;;5037413;28;20480;-75
2020/12/07 08:44:07;;;;;;;66.60;35.70;;;5.60;74.10;;;;;;5032275;28;20803;-75
2020/12/07 08:46:35;;;;;;;93.53;47.53;;;5.60;71.80;;;;;;5032676;28;20662;-76
2020/12/07 08:49:02;;;;;;;62.42;35.50;;;5.60;75.30;;;;;;5033730;28;20550;-75
2020/12/07 08:51:30;;;;;;;69.88;35.78;;;5.60;73.60;;;;;;5034268;28;20485;-76
2020/12/07 08:53:56;;;;;;;130.63;63.50;;;5.80;72.10;;;;;;5032003;28;20409;-77
2020/12/07 08:56:25;;;;;;;85.35;42.45;;;5.80;75.40;;;;;;5038847;28;20397;-77
2020/12/07 08:58:51;;;;;;;74.03;39.33;;;5.90;75.40;;;;;;5030818;28;20442;-77
2020/12/07 09:01:17;;;;;;;88.90;46.20;;;5.90;75.10;;;;;;5033758;28;20389;-77
2020/12/07 09:03:47;;;;;;;68.45;36.55;;;6.10;77.70;;;;;;5035599;28;20395;-77
2020/12/07 09:06:16;;;;;;;84.70;43.38;;;6.00;70.60;;;;;;5030240;28;20982;-76
2020/12/07 09:08:42;;;;;;;75.13;39.42;;;6.20;71.40;;;;;;5040759;28;20964;-77
2020/12/07 09:11:10;;;;;;;63.63;33.77;;;6.10;70.70;;;;;;5044592;28;20382;-76
2020/12/07 09:13:36;;;;;;;58.42;33.67;;;6.00;68.00;;;;;;5035576;28;20449;-75
2020/12/07 09:16:03;;;;;;;63.37;34.20;;;5.90;69.70;;;;;;5033428;28;20470;-76
2020/12/07 09:18:29;;;;;;;65.55;34.90;;;5.90;69.70;;;;;;5030000;28;20403;-74
2020/12/07 09:20:54;;;;;;;61.00;33.80;;;5.90;70.20;;;;;;5040043;28;20449;-75
2020/12/07 09:23:20;;;;;;;63.30;34.20;;;5.70;70.00;;;;;;5029093;28;20394;-77
2020/12/07 09:25:47;;;;;;;62.35;34.58;;;5.70;72.20;;;;;;5033382;28;20411;-76
2020/12/07 09:28:13;;;;;;;61.67;33.40;;;5.70;72.00;;;;;;5029308;28;20760;-76
2020/12/07 09:30:40;;;;;;;60.22;33.03;;;5.70;70.10;;;;;;5028846;28;20394;-76
2020/12/07 09:33:06;;;;;;;51.08;30.30;;;5.80;75.20;;;;;;5041941;28;20450;-74
2020/12/07 09:35:32;;;;;;;63.10;32.83;;;5.70;70.80;;;;;;5038752;28;20402;-75
2020/12/07 09:37:57;;;;;;;64.97;33.40;;;5.60;71.20;;;;;;5034969;28;20401;-76
2020/12/07 09:40:23;;;;;;;62.03;31.92;;;5.60;72.30;;;;;;5038640;28;20436;-75
2020/12/07 09:42:48;;;;;;;57.50;31.67;;;5.60;71.10;;;;;;5030075;28;21118;-76
2020/12/07 09:45:14;;;;;;;61.50;32.80;;;5.60;71.60;;;;;;5048026;28;20495;-76
2020/12/07 09:47:39;;;;;;;58.70;32.60;;;5.60;73.30;;;;;;5035217;28;20852;-74
2020/12/07 09:50:07;;;;;;;60.03;32.83;;;5.60;73.10;;;;;;5039044;28;20399;-75
2020/12/07 09:52:33;;;;;;;57.67;32.72;;;5.60;73.80;;;;;;5033944;28;20454;-73
2020/12/07 09:54:59;;;;;;;59.65;31.52;;;5.70;72.30;;;;;;5045931;28;20396;-73
2020/12/07 09:57:25;;;;;;;56.67;31.57;;;5.80;71.80;;;;;;5042389;28;20489;-73
2020/12/07 09:59:50;;;;;;;57.40;32.17;;;5.80;71.00;;;;;;5028900;28;20493;-73
2020/12/07 10:02:19;;;;;;;58.95;31.55;;;5.90;70.90;;;;;;5039907;28;20415;-74
2020/12/07 10:04:45;;;;;;;58.60;31.85;;;5.80;69.70;;;;;;5036904;28;20884;-74
2020/12/07 10:07:11;;;;;;;62.47;33.22;;;5.90;71.40;;;;;;5035057;28;20480;-73
2020/12/07 10:09:37;;;;;;;64.43;33.17;;;5.90;70.80;;;;;;5042257;28;20405;-73
2020/12/07 10:12:03;;;;;;;54.47;31.00;;;6.00;72.10;;;;;;5048284;28;20382;-74
2020/12/07 10:14:29;;;;;;;62.70;32.90;;;6.00;71.80;;;;;;5041416;28;20391;-73
2020/12/07 10:16:56;;;;;;;58.30;32.10;;;6.00;72.20;;;;;;5038732;28;20398;-75
2020/12/07 10:19:22;;;;;;;61.47;32.42;;;6.00;72.60;;;;;;5034335;28;20438;-74
2020/12/07 10:21:47;;;;;;;59.53;33.08;;;6.00;72.20;;;;;;5032684;28;20397;-74
2020/12/07 10:24:13;;;;;;;59.92;31.02;;;6.00;72.40;;;;;;5048368;28;20400;-77
2020/12/07 10:26:38;;;;;;;58.55;32.58;;;6.00;72.90;;;;;;5048600;28;21131;-76
2020/12/07 10:29:04;;;;;;;56.90;31.13;;;6.00;73.50;;;;;;5037424;28;20391;-74
2020/12/07 10:31:29;;;;;;;57.60;30.23;;;6.10;72.70;;;;;;5028380;28;20395;-75
2020/12/07 10:33:55;;;;;;;55.42;29.45;;;6.10;70.90;;;;;;5034196;28;20451;-72
2020/12/07 10:36:23;;;;;;;55.47;30.65;;;6.10;71.20;;;;;;5041488;28;20416;-73
2020/12/07 10:38:49;;;;;;;57.83;29.40;;;6.00;72.20;;;;;;5034288;28;20418;-72
2020/12/07 10:41:14;;;;;;;55.92;29.42;;;6.10;72.80;;;;;;5032209;28;20390;-73
2020/12/07 10:43:41;;;;;;;59.17;29.90;;;6.10;72.00;;;;;;5031953;28;20508;-76
2020/12/07 10:46:07;;;;;;;53.17;27.95;;;6.10;72.60;;;;;;5031568;28;20791;-74
2020/12/07 10:48:33;;;;;;;52.15;28.08;;;6.20;72.40;;;;;;5031193;28;20411;-76
2020/12/07 10:50:59;;;;;;;53.47;27.97;;;6.30;71.10;;;;;;5031588;28;20472;-78
2020/12/07 10:53:24;;;;;;;46.73;26.70;;;6.20;70.20;;;;;;5032047;28;20383;-74
2020/12/07 10:55:52;;;;;;;52.05;27.50;;;6.30;70.00;;;;;;5034776;28;20422;-73
2020/12/07 10:58:18;;;;;;;51.30;27.30;;;6.30;69.40;;;;;;5039640;28;20783;-73
2020/12/07 11:00:44;;;;;;;48.30;25.20;;;6.40;68.60;;;;;;5031902;28;20390;-72
2020/12/07 11:03:09;;;;;;;51.60;26.30;;;6.40;68.20;;;;;;5034761;28;20428;-74
2020/12/07 11:05:37;;;;;;;45.33;24.80;;;6.30;68.60;;;;;;5038985;28;20503;-73
2020/12/07 11:08:10;;;;;;;43.20;24.35;;;6.30;68.60;;;;;;5045054;28;20734;-74
2020/12/07 11:10:36;;;;;;;44.33;24.77;;;6.40;69.90;;;;;;5033642;28;20872;-76
2020/12/07 11:13:06;;;;;;;42.80;24.00;;;6.40;69.80;;;;;;5034914;28;20387;-76
2020/12/07 11:15:31;;;;;;;42.85;24.27;;;6.40;69.40;;;;;;5034317;28;20445;-74
2020/12/07 11:17:57;;;;;;;44.23;23.40;;;6.40;69.30;;;;;;5034198;28;20434;-74
2020/12/07 11:20:22;;;;;;;42.97;22.27;;;6.50;69.10;;;;;;5034679;28;20478;-75
2020/12/07 11:22:48;;;;;;;45.53;24.07;;;6.50;69.30;;;;;;5035371;28;20405;-75
2020/12/07 11:25:14;;;;;;;41.60;22.87;;;6.50;68.50;;;;;;5053129;28;20409;-74
2020/12/07 11:27:41;;;;;;;42.37;22.97;;;6.50;67.90;;;;;;5056170;28;20389;-73
2020/12/07 11:30:06;;;;;;;38.15;20.10;;;6.60;67.70;;;;;;5039127;28;20391;-74
2020/12/07 11:32:33;;;;;;;42.15;21.52;;;6.50;67.90;;;;;;5033982;28;20463;-74
2020/12/07 11:34:59;;;;;;;33.30;19.38;;;6.50;67.40;;;;;;5048511;28;20490;-74
2020/12/07 11:37:24;;;;;;;37.53;20.27;;;6.60;67.90;;;;;;5053607;28;20385;-74
2020/12/07 11:40:08;;;;;;;34.80;19.27;;;6.60;68.20;;;;;;5052305;28;20478;-74
2020/12/07 11:42:50;;;;;;;31.67;18.27;;;6.70;67.90;;;;;;5053466;28;20403;-74
2020/12/07 11:45:15;;;;;;;30.88;17.58;;;6.80;64.60;;;;;;5034526;28;20475;-74
2020/12/07 11:47:42;;;;;;;29.83;18.35;;;6.70;64.90;;;;;;5031856;28;20403;-74
2020/12/07 11:50:07;;;;;;;30.77;18.03;;;6.80;64.30;;;;;;5033154;28;20406;-75
2020/12/07 11:52:33;;;;;;;32.90;19.23;;;6.90;63.30;;;;;;5033329;28;20457;-74
2020/12/07 11:54:58;;;;;;;33.30;18.77;;;7.00;61.30;;;;;;5033564;28;20394;-73
2020/12/07 11:57:24;;;;;;;33.63;19.77;;;6.90;61.90;;;;;;5039501;28;20401;-73
2020/12/07 11:59:49;;;;;;;36.77;20.60;;;6.90;62.90;;;;;;5048865;28;20489;-74
2020/12/07 12:02:15;;;;;;;37.53;19.80;;;6.80;62.50;;;;;;5035703;28;20407;-73
2020/12/07 12:04:40;;;;;;;37.03;19.70;;;6.80;64.20;;;;;;5036255;28;20943;-74
2020/12/07 12:07:07;;;;;;;38.00;19.87;;;6.70;63.20;;;;;;5042476;28;20405;-74
2020/12/07 12:09:36;;;;;;;43.42;21.70;;;6.80;60.90;;;;;;5055302;28;20934;-74
2020/12/07 12:12:01;;;;;;;37.43;20.33;;;6.80;62.40;;;;;;5040201;28;20961;-74
2020/12/07 12:14:27;;;;;;;37.40;20.65;;;6.90;61.60;;;;;;5035806;28;20391;-75
2020/12/07 12:16:53;;;;;;;37.92;20.50;;;6.70;60.70;;;;;;5038594;28;20399;-74
2020/12/07 12:19:19;;;;;;;37.33;19.95;;;6.60;62.40;;;;;;5043369;28;20401;-73
2020/12/07 12:21:44;;;;;;;41.47;21.40;;;6.50;63.80;;;;;;5035362;28;20506;-74
2020/12/07 12:24:10;;;;;;;42.30;21.67;;;6.50;64.90;;;;;;5031746;28;20482;-74
2020/12/07 12:26:36;;;;;;;37.23;21.67;;;6.50;65.70;;;;;;5032514;28;20900;-74
2020/12/07 12:29:03;;;;;;;40.80;22.27;;;6.60;65.10;;;;;;5035418;28;20444;-75
2020/12/07 12:31:30;;;;;;;37.08;21.63;;;6.50;65.80;;;;;;5034304;28;20800;-74
2020/12/07 12:33:56;;;;;;;36.10;21.20;;;6.40;66.40;;;;;;5047135;28;20397;-74
2020/12/07 12:36:24;;;;;;;39.90;21.95;;;6.50;67.30;;;;;;5041894;28;20402;-74
2020/12/07 12:38:50;;;;;;;37.17;21.35;;;6.50;68.90;;;;;;5033647;28;20805;-74
2020/12/07 12:41:16;;;;;;;38.30;20.77;;;6.60;68.60;;;;;;5030917;28;20434;-74
2020/12/07 12:43:42;;;;;;;41.90;21.67;;;6.60;68.30;;;;;;5031393;28;20418;-75
2020/12/07 12:46:07;;;;;;;41.17;21.98;;;6.60;68.00;;;;;;5038861;28;20413;-74
2020/12/07 12:48:34;;;;;;;36.90;19.67;;;6.80;68.90;;;;;;5050098;28;20909;-74
2020/12/07 12:51:00;;;;;;;37.00;20.45;;;6.80;68.60;;;;;;5040959;28;20387;-74
2020/12/07 12:53:27;;;;;;;30.73;19.33;;;6.80;69.10;;;;;;5030433;28;20395;-74
2020/12/07 12:55:53;;;;;;;31.80;18.93;;;6.80;66.90;;;;;;5038182;28;20472;-74
2020/12/07 12:58:21;;;;;;;34.88;20.85;;;6.90;67.00;;;;;;5050463;28;20444;-74
2020/12/07 13:00:47;;;;;;;34.83;21.13;;;7.00;66.10;;;;;;5038513;28;20403;-74
2020/12/07 13:03:13;;;;;;;34.60;19.70;;;6.90;67.50;;;;;;5029840;28;20399;-73
2020/12/07 13:05:39;;;;;;;29.80;18.20;;;7.10;67.50;;;;;;5031484;28;20407;-73
2020/12/07 13:08:04;;;;;;;29.20;18.17;;;7.20;64.30;;;;;;5046029;28;20898;-76